Time;durP1;ratioP1;P1;durP2;ratioP2;P2;SDS_P1;SDS_P2;PMS_P1;PMS_P2;Temp;Humidity;BMP_temperature;BMP_pressure;BME280_temperature;BME280_humidity;BME280_pressure;Samples;Min_cycle;Max_cycle;Signal;HPM_P1;HPM_P2
2023/07/09 00:02:51;;;;;;;9.38;4.00;;;;;;;22.70;97.09;99234.78;10324391;28;20053;-67
2023/07/09 00:07:51;;;;;;;9.05;3.97;;;;;;;22.25;97.11;99166.13;10324687;28;20069;-66
2023/07/09 00:12:52;;;;;;;5.95;3.60;;;;;;;22.53;97.01;99240.50;10328731;28;20125;-67
2023/07/09 00:17:53;;;;;;;7.35;3.90;;;;;;;22.41;98.18;99231.88;10330609;28;20144;-69
2023/07/09 00:22:54;;;;;;;9.13;4.18;;;;;;;22.48;99.22;99220.75;10331735;28;20050;-67
2023/07/09 00:27:54;;;;;;;8.65;3.92;;;;;;;22.36;99.95;99185.88;10339233;28;20046;-67
2023/07/09 00:32:55;;;;;;;9.73;4.13;;;;;;;22.22;99.82;99165.88;10342332;28;20046;-67
2023/07/09 00:38:00;;;;;;;5.75;3.60;;;;;;;22.59;100.00;99232.38;10329033;28;20038;-67
2023/07/09 00:43:01;;;;;;;7.85;3.80;;;;;;;22.63;100.00;99241.56;10330461;28;20074;-66
2023/07/09 00:48:06;;;;;;;7.22;3.72;;;;;;;22.54;100.00;99238.59;10329219;28;20121;-66
2023/07/09 00:53:20;;;;;;;8.77;4.20;;;;;;;22.47;100.00;99241.59;10329708;28;20038;-66
2023/07/09 00:58:26;;;;;;;11.90;4.82;;;;;;;22.17;100.00;99184.84;10329244;28;20063;-65
2023/07/09 01:03:44;;;;;;;12.48;4.70;;;;;;;22.09;100.00;99168.03;10327650;28;20038;-65
2023/07/09 01:08:45;;;;;;;10.88;4.90;;;;;;;22.40;100.00;99253.78;10328769;28;20042;-66
2023/07/09 01:13:47;;;;;;;11.05;5.07;;;;;;;21.84;100.00;99182.38;10327461;28;20049;-66
2023/07/09 01:18:48;;;;;;;8.00;4.38;;;;;;;22.16;100.00;99240.78;10328931;28;20441;-65
2023/07/09 01:23:51;;;;;;;11.90;4.85;;;;;;;22.33;100.00;99273.81;10327913;28;20038;-66
2023/07/09 01:28:53;;;;;;;9.82;4.70;;;;;;;22.20;100.00;99251.91;10343941;28;20042;-66
2023/07/09 01:33:54;;;;;;;6.68;3.95;;;;;;;21.63;100.00;99165.34;10328584;28;20133;-65
2023/07/09 01:38:56;;;;;;;9.18;4.20;;;;;;;22.26;100.00;99254.34;10329126;28;20056;-67
2023/07/09 01:43:57;;;;;;;7.00;3.90;;;;;;;22.23;100.00;99257.59;10327200;28;20074;-66
2023/07/09 01:48:58;;;;;;;6.22;3.42;;;;;;;21.81;100.00;99184.81;10335598;28;20483;-65
2023/07/09 01:53:59;;;;;;;5.57;4.00;;;;;;;22.22;100.00;99242.44;10348610;28;20057;-65
2023/07/09 01:59:01;;;;;;;12.57;4.40;;;;;;;22.04;100.00;99221.31;10341997;28;20526;-65
2023/07/09 02:04:02;;;;;;;7.40;3.58;;;;;;;22.16;100.00;99251.59;10328040;28;20050;-65
2023/07/09 02:09:02;;;;;;;7.93;3.42;;;;;;;22.10;100.00;99237.25;10327258;28;20129;-65
2023/07/09 02:14:03;;;;;;;22.60;3.50;;;;;;;21.57;100.00;99160.22;10341461;28;20053;-65
2023/07/09 02:19:04;;;;;;;6.40;3.55;;;;;;;22.19;100.00;99251.06;10327298;28;20046;-65
2023/07/09 02:24:05;;;;;;;7.18;3.70;;;;;;;22.18;100.00;99244.06;10327324;28;20042;-65
2023/07/09 02:29:06;;;;;;;6.13;3.70;;;;;;;21.60;100.00;99154.28;10341369;28;20119;-65
2023/07/09 02:34:07;;;;;;;6.10;3.28;;;;;;;22.27;100.00;99253.25;10325655;28;20034;-65
2023/07/09 02:39:08;;;;;;;7.00;3.75;;;;;;;22.11;100.00;99197.53;10325990;28;20483;-67
2023/07/09 02:44:08;;;;;;;5.60;3.47;;;;;;;22.47;100.00;99225.38;10326805;28;20047;-65
2023/07/09 02:49:11;;;;;;;6.20;3.92;;;;;;;22.55;100.00;99223.97;10326771;28;20489;-67
2023/07/09 02:54:12;;;;;;;7.88;4.45;;;;;;;22.68;100.00;99234.25;10325819;28;20050;-65
2023/07/09 02:59:12;;;;;;;17.63;4.53;;;;;;;22.63;100.00;99223.44;10326488;28;20423;-65
2023/07/09 03:04:14;;;;;;;13.52;4.78;;;;;;;22.62;100.00;99221.81;10333882;28;20046;-65
2023/07/09 03:09:15;;;;;;;5.32;4.28;;;;;;;22.82;100.00;99228.25;10344476;28;20576;-65
2023/07/09 03:14:16;;;;;;;7.00;4.22;;;;;;;22.81;100.00;99224.72;10332581;28;20129;-65
2023/07/09 03:19:17;;;;;;;7.55;4.38;;;;;;;22.90;100.00;99233.09;10324773;28;20046;-65
2023/07/09 03:24:18;;;;;;;6.78;4.68;;;;;;;22.38;100.00;99140.44;10323532;28;20133;-65
2023/07/09 03:29:19;;;;;;;8.30;5.03;;;;;;;22.91;100.00;99216.56;10324883;28;20494;-64
2023/07/09 03:34:19;;;;;;;10.18;4.47;;;;;;;23.31;100.00;99236.47;10323385;28;20092;-65
2023/07/09 03:39:20;;;;;;;5.13;4.05;;;;;;;23.81;100.00;99231.03;10335615;28;20164;-64
2023/07/09 03:44:21;;;;;;;9.75;4.38;;;;;;;23.97;100.00;99227.13;10325690;28;20125;-65
2023/07/09 03:49:21;;;;;;;8.82;4.22;;;;;;;23.44;100.00;99156.44;10330538;28;20095;-65
2023/07/09 03:54:22;;;;;;;6.40;4.10;;;;;;;23.61;100.00;99166.91;10332149;28;20050;-65
2023/07/09 03:59:23;;;;;;;9.30;4.80;;;;;;;24.12;100.00;99224.28;10332231;28;20097;-65
2023/07/09 04:04:23;;;;;;;9.73;5.50;;;;;;;24.65;100.00;99226.25;10330876;28;20043;-65
2023/07/09 04:09:24;;;;;;;14.55;4.65;;;;;;;24.60;100.00;99218.97;10331161;28;20057;-67
2023/07/09 04:14:25;;;;;;;7.80;4.32;;;;;;;24.06;100.00;99135.91;10331226;28;20103;-68
2023/07/09 04:19:26;;;;;;;7.35;4.60;;;;;;;24.75;100.00;99214.47;10340601;28;20053;-66
2023/07/09 04:24:27;;;;;;;7.50;4.30;;;;;;;25.99;98.11;99223.41;10342360;28;20054;-67
2023/07/09 04:29:28;;;;;;;8.40;3.80;;;;;;;27.29;91.60;99206.00;10330547;28;20057;-66
2023/07/09 04:34:28;;;;;;;7.78;3.47;;;;;;;26.85;90.53;99239.31;10370274;28;20045;-70
2023/07/09 04:39:29;;;;;;;10.95;3.65;;;;;;;26.07;91.21;99235.53;10370699;28;20045;-70
2023/07/09 04:44:30;;;;;;;4.40;2.33;;;;;;;27.14;86.78;99249.91;10370001;28;20452;-69
2023/07/09 04:49:32;;;;;;;3.42;2.13;;;;;;;27.81;80.30;99183.81;10370244;28;20049;-70
2023/07/09 04:54:33;;;;;;;3.70;2.25;;;;;;;28.36;77.38;99220.91;10370448;28;20053;-70
2023/07/09 04:59:34;;;;;;;4.35;2.47;;;;;;;29.20;76.70;99247.34;10370408;28;20078;-70
2023/07/09 05:04:34;;;;;;;7.57;2.30;;;;;;;29.89;72.02;99246.63;10369198;28;20107;-70
2023/07/09 05:09:36;;;;;;;6.88;2.60;;;;;;;29.73;70.97;99199.75;10369700;28;20034;-69
2023/07/09 05:14:36;;;;;;;5.88;2.38;;;;;;;30.27;68.27;99256.88;10370456;28;20132;-69
2023/07/09 05:19:38;;;;;;;4.72;2.10;;;;;;;29.34;67.54;99156.94;10369091;28;20132;-69
2023/07/09 05:24:39;;;;;;;4.60;2.58;;;;;;;29.67;68.81;99264.00;10369599;28;20049;-69
2023/07/09 05:29:39;;;;;;;6.53;2.35;;;;;;;29.34;69.00;99258.13;10368664;28;20049;-69
2023/07/09 05:34:40;;;;;;;5.32;2.65;;;;;;;29.09;68.89;99244.09;10369104;28;20034;-69
2023/07/09 05:39:41;;;;;;;3.47;2.15;;;;;;;28.75;70.72;99222.06;10368313;28;20058;-69
2023/07/09 05:44:42;;;;;;;6.45;2.40;;;;;;;28.90;69.52;99238.06;10368042;28;20049;-68
2023/07/09 05:49:42;;;;;;;3.53;2.30;;;;;;;28.75;68.72;99203.78;10368141;28;20119;-69
2023/07/09 05:54:43;;;;;;;10.68;2.30;;;;;;;28.54;68.10;99159.81;10368438;28;20052;-69
2023/07/09 05:59:44;;;;;;;2.72;2.00;;;;;;;28.95;68.02;99207.84;10358553;28;20050;-68
2023/07/09 06:04:45;;;;;;;7.78;2.78;;;;;;;28.98;67.37;99177.13;10368068;28;20041;-71
2023/07/09 06:09:46;;;;;;;7.22;2.30;;;;;;;28.87;66.31;99143.84;10358996;28;20046;-70
2023/07/09 06:14:57;;;;;;;5.47;2.20;;;;;;;29.33;67.98;99212.78;10339888;28;20579;-68
2023/07/09 06:35:29;;;;;;;5.50;2.20;;;;;;;29.43;65.95;99192.50;10381838;22;20084;-66
2023/07/09 06:40:30;;;;;;;4.82;2.50;;;;;;;28.84;65.30;99102.69;10413395;28;20044;-67
2023/07/09 06:45:32;;;;;;;3.28;2.40;;;;;;;29.49;65.13;99172.84;10399420;28;20044;-69
2023/07/09 06:50:35;;;;;;;3.22;2.25;;;;;;;29.60;65.37;99172.53;10391518;28;20046;-66
2023/07/09 06:55:35;;;;;;;4.57;2.43;;;;;;;29.68;65.15;99169.03;10398350;28;20096;-66
2023/07/09 07:00:36;;;;;;;5.50;2.30;;;;;;;29.45;65.16;99146.47;10404653;28;20053;-68
2023/07/09 07:05:42;;;;;;;4.93;2.60;;;;;;;29.56;65.59;99137.63;10412238;28;20482;-67
2023/07/09 07:10:43;;;;;;;6.85;2.78;;;;;;;29.71;65.02;99132.81;10410650;28;20084;-67
2023/07/09 07:15:49;;;;;;;4.88;2.53;;;;;;;29.86;64.51;99136.97;10408345;28;20041;-67
2023/07/09 07:20:51;;;;;;;6.20;2.50;;;;;;;30.06;65.64;99127.22;10412319;28;20045;-67
2023/07/09 07:25:51;;;;;;;4.68;2.60;;;;;;;30.55;64.18;99122.22;10421044;28;20056;-66
2023/07/09 07:31:07;;;;;;;5.78;2.63;;;;;;;29.96;62.26;98999.72;10419846;28;20053;-65
2023/07/09 07:36:09;;;;;;;4.50;2.58;;;;;;;30.89;63.27;99126.72;10420295;28;20044;-66
2023/07/09 07:41:10;;;;;;;5.93;2.80;;;;;;;30.38;62.52;99008.03;10411130;28;20505;-66
2023/07/09 07:46:11;;;;;;;12.02;3.38;;;;;;;30.77;64.15;99022.44;10400473;28;20400;-67
2023/07/09 07:51:12;;;;;;;4.38;2.90;;;;;;;31.29;62.04;99105.13;10389123;28;20052;-67
2023/07/09 07:56:13;;;;;;;8.85;4.18;;;;;;;31.06;61.11;99090.16;10386879;28;20049;-66
2023/07/09 08:01:14;;;;;;;4.80;2.50;;;;;;;30.93;61.08;99017.97;10395988;28;20041;-68
2023/07/09 08:06:14;;;;;;;4.25;2.60;;;;;;;31.36;60.46;99074.41;10405549;28;20045;-66
2023/07/09 08:11:17;;;;;;;4.88;2.88;;;;;;;31.55;59.25;99085.69;10396170;28;20445;-67
2023/07/09 08:16:17;;;;;;;6.65;3.00;;;;;;;31.38;58.24;99072.13;10385261;28;20065;-67
2023/07/09 08:21:18;;;;;;;20.25;7.60;;;;;;;31.23;57.52;99024.16;10401833;28;20053;-67
2023/07/09 08:26:19;;;;;;;7.32;3.13;;;;;;;31.16;57.14;98977.25;10412565;28;20091;-67
2023/07/09 08:31:20;;;;;;;10.25;3.13;;;;;;;31.28;55.75;98974.56;10402396;28;20061;-68
2023/07/09 08:36:20;;;;;;;4.55;2.58;;;;;;;31.68;53.60;99042.59;10376679;28;20071;-67
2023/07/09 08:41:44;;;;;;;8.30;2.85;;;;;;;32.01;53.72;99045.31;10398917;28;20061;-67
2023/07/09 08:47:07;;;;;;;6.10;2.67;;;;;;;31.84;51.90;99043.53;10378417;28;20523;-66
2023/07/09 08:52:18;;;;;;;7.57;3.03;;;;;;;31.89;54.92;99011.50;10417418;28;20116;-67
2023/07/09 08:57:34;;;;;;;4.75;2.45;;;;;;;32.12;53.24;99018.16;10387311;28;20103;-66
2023/07/09 09:02:43;;;;;;;5.57;2.90;;;;;;;32.31;53.07;99025.84;10393109;28;20062;-67
2023/07/09 09:07:44;;;;;;;7.38;2.63;;;;;;;32.32;53.38;99016.44;10399335;28;20049;-66
2023/07/09 09:12:58;;;;;;;3.42;2.50;;;;;;;32.39;53.12;99015.84;10388935;28;20128;-66
2023/07/09 09:18:19;;;;;;;6.07;2.70;;;;;;;32.07;53.00;98930.50;10362460;28;20042;-67
2023/07/09 09:23:21;;;;;;;6.57;2.23;;;;;;;32.51;51.35;99019.41;10400873;28;20409;-68
2023/07/09 09:28:24;;;;;;;7.20;2.70;;;;;;;32.11;50.79;98956.13;10399417;28;20046;-67
2023/07/09 09:33:36;;;;;;;6.25;2.75;;;;;;;32.13;50.51;98953.84;10365069;28;20417;-67
2023/07/09 09:38:37;;;;;;;6.20;2.90;;;;;;;32.81;50.47;99027.34;10402139;28;20049;-68
2023/07/09 09:43:37;;;;;;;12.40;3.22;;;;;;;33.25;50.99;99029.41;10388552;28;20399;-67
2023/07/09 09:48:38;;;;;;;4.75;2.42;;;;;;;33.42;50.16;99032.63;10394331;28;20045;-68
2023/07/09 09:53:44;;;;;;;5.43;3.00;;;;;;;33.32;48.74;99022.13;10401515;28;20033;-67
2023/07/09 09:58:45;;;;;;;4.80;2.72;;;;;;;33.02;49.07;98969.44;10368033;28;20049;-67
2023/07/09 10:03:52;;;;;;;4.90;2.88;;;;;;;33.49;48.55;99026.50;10331641;28;20045;-66
2023/07/09 10:09:34;;;;;;;5.50;2.72;;;;;;;33.49;49.57;99042.25;10332877;28;20045;-66
2023/07/09 10:14:59;;;;;;;5.68;2.83;;;;;;;33.09;49.60;99027.41;10326947;28;20113;-67
2023/07/09 10:20:08;;;;;;;9.65;2.97;;;;;;;32.23;50.55;98972.59;10379267;28;20046;-66
2023/07/09 10:25:11;;;;;;;6.82;3.35;;;;;;;32.41;50.21;98951.16;10379657;28;20041;-67
2023/07/09 10:30:37;;;;;;;7.40;3.35;;;;;;;33.48;48.67;99040.66;10376043;28;20068;-65
2023/07/09 10:35:52;;;;;;;12.13;3.17;;;;;;;33.69;46.86;99043.97;10393629;28;20045;-66
2023/07/09 10:40:57;;;;;;;15.95;3.17;;;;;;;33.52;46.41;98976.28;10413285;28;20076;-66
2023/07/09 10:46:04;;;;;;;12.75;3.83;;;;;;;33.66;46.88;99021.88;10413624;28;20086;-66
2023/07/09 10:51:17;;;;;;;7.18;2.90;;;;;;;33.57;47.82;99033.06;10413324;28;20493;-66
2023/07/09 10:56:24;;;;;;;8.00;2.90;;;;;;;33.44;48.18;99025.97;10410470;28;20087;-67
2023/07/09 11:01:31;;;;;;;7.55;3.22;;;;;;;33.52;48.21;99005.78;10411599;28;20041;-67
2023/07/09 11:06:38;;;;;;;11.15;3.50;;;;;;;33.75;47.26;98934.38;10413265;28;20046;-66
2023/07/09 11:11:43;;;;;;;6.18;2.90;;;;;;;34.17;45.14;98991.66;10391532;28;20036;-67
2023/07/09 11:16:44;;;;;;;12.68;3.63;;;;;;;33.89;46.76;98976.00;10377792;28;20037;-67
2023/07/09 11:22:00;;;;;;;6.45;2.92;;;;;;;34.06;46.81;98994.94;10389038;28;20485;-67
2023/07/09 11:27:01;;;;;;;7.38;3.10;;;;;;;34.09;46.23;98972.19;10355128;28;20057;-67
2023/07/09 11:32:09;;;;;;;7.90;3.35;;;;;;;34.47;45.00;98987.19;10349675;28;20262;-69
2023/07/09 11:37:12;;;;;;;11.60;3.67;;;;;;;34.57;45.94;98979.53;10349297;28;20077;-67
2023/07/09 11:42:56;;;;;;;5.57;3.08;;;;;;;34.83;44.99;98971.44;10350622;28;20172;-68
2023/07/09 11:48:15;;;;;;;5.25;3.20;;;;;;;34.85;44.20;98966.34;10345876;28;20104;-67
2023/07/09 11:53:34;;;;;;;7.32;3.35;;;;;;;34.92;44.38;98963.72;10360939;28;20501;-67
2023/07/09 11:58:34;;;;;;;23.33;5.15;;;;;;;34.48;45.29;98936.41;10352825;28;20060;-67
2023/07/09 12:03:39;;;;;;;10.77;3.38;;;;;;;34.58;45.21;98948.84;10351700;28;20066;-67
2023/07/09 12:08:42;;;;;;;8.70;3.40;;;;;;;34.50;45.69;98941.56;10362219;28;20048;-68
2023/07/09 12:13:42;;;;;;;11.80;3.92;;;;;;;33.74;47.37;98869.41;10362943;28;20049;-67
2023/07/09 12:18:43;;;;;;;6.60;3.22;;;;;;;33.75;47.08;98937.13;10371506;28;20440;-66
2023/07/09 12:23:45;;;;;;;5.45;3.40;;;;;;;33.41;47.80;98955.91;10380991;28;20038;-68
2023/07/09 12:28:58;;;;;;;22.27;12.18;;;;;;;33.37;48.58;98955.81;10358150;28;20441;-67
2023/07/09 12:33:59;;;;;;;8.30;3.97;;;;;;;33.11;48.97;98942.56;10366820;28;20050;-67
2023/07/09 12:39:05;;;;;;;9.02;3.13;;;;;;;33.09;49.56;98961.38;10356775;28;20033;-67
2023/07/09 12:44:11;;;;;;;7.30;3.30;;;;;;;32.96;49.33;98952.34;10358327;28;20494;-67
2023/07/09 12:49:25;;;;;;;5.80;3.13;;;;;;;32.54;49.82;98855.72;10385838;28;20113;-68
2023/07/09 12:54:29;;;;;;;6.32;2.80;;;;;;;32.91;49.39;98938.06;10363864;28;20038;-66
2023/07/09 12:59:40;;;;;;;7.53;2.83;;;;;;;32.60;50.67;98853.53;10352561;28;20405;-67
2023/07/09 13:04:42;;;;;;;7.47;3.00;;;;;;;33.14;49.27;98917.09;10361165;28;20418;-67
2023/07/09 13:09:48;;;;;;;7.70;3.00;;;;;;;32.90;48.20;98864.94;10364008;28;20088;-69
2023/07/09 13:14:54;;;;;;;11.20;3.65;;;;;;;33.13;49.93;98918.25;10361214;28;20029;-67
2023/07/09 13:19:56;;;;;;;11.38;4.03;;;;;;;33.07;50.75;98921.63;10340031;28;20038;-66
2023/07/09 13:24:57;;;;;;;9.85;4.00;;;;;;;32.65;53.01;98902.78;10356976;28;20413;-68
2023/07/09 13:29:58;;;;;;;65.45;46.90;;;;;;;32.20;55.13;98890.88;10353296;28;20048;-66
2023/07/09 13:34:58;;;;;;;19.42;11.93;;;;;;;31.47;56.08;98823.13;10353104;28;20421;-66
2023/07/09 13:40:00;;;;;;;90.22;41.65;;;;;;;31.44;57.77;98892.41;10352071;28;20080;-68
2023/07/09 13:45:00;;;;;;;44.92;29.33;;;;;;;30.84;58.85;98893.84;10384480;28;20540;-68
2023/07/09 13:50:01;;;;;;;35.70;20.48;;;;;;;30.40;60.44;98888.75;10414724;28;20085;-69
2023/07/09 13:55:02;;;;;;;65.45;37.00;;;;;;;30.19;61.61;98894.22;10415587;28;20542;-68
2023/07/09 14:00:03;;;;;;;31.75;19.50;;;;;;;29.96;62.10;98882.78;10415400;28;20496;-67
2023/07/09 14:05:10;;;;;;;57.53;32.10;;;;;;;29.45;63.62;98791.63;10402442;28;20072;-68
2023/07/09 14:10:17;;;;;;;14.10;8.68;;;;;;;29.34;63.63;98774.00;10333383;28;20141;-66
2023/07/09 14:15:20;;;;;;;35.00;13.57;;;;;;;29.82;63.55;98860.31;10367618;28;20045;-68
2023/07/09 14:20:22;;;;;;;27.23;16.50;;;;;;;29.50;63.10;98782.44;10414375;28;20049;-71
2023/07/09 14:25:25;;;;;;;15.20;8.15;;;;;;;30.32;62.63;98848.53;10415025;28;20128;-72
2023/07/09 14:30:26;;;;;;;12.57;5.63;;;;;;;30.82;61.34;98827.63;10396316;28;20128;-70
2023/07/09 14:35:27;;;;;;;11.15;5.10;;;;;;;31.18;60.47;98846.06;10413116;28;20057;-71
2023/07/09 14:40:28;;;;;;;14.82;7.13;;;;;;;30.15;60.82;98698.03;10413658;28;20063;-71
2023/07/09 14:45:30;;;;;;;11.85;4.90;;;;;;;30.97;60.74;98848.09;10413203;28;20048;-70
2023/07/09 14:50:30;;;;;;;19.17;9.18;;;;;;;30.60;61.64;98847.94;10413441;28;20091;-71
2023/07/09 14:55:31;;;;;;;54.08;15.15;;;;;;;29.97;63.08;98749.41;10413415;28;20096;-69
2023/07/09 15:00:32;;;;;;;19.60;9.52;;;;;;;29.91;63.10;98772.66;10413393;28;20042;-72
2023/07/09 15:05:34;;;;;;;16.60;8.10;;;;;;;30.12;62.77;98849.31;10411384;28;20124;-72
2023/07/09 15:10:35;;;;;;;7.45;3.97;;;;;;;29.82;62.99;98834.88;10370897;28;20100;-72
2023/07/09 15:15:36;;;;;;;13.63;6.65;;;;;;;29.90;63.38;98870.41;10371704;28;20053;-71
2023/07/09 15:20:37;;;;;;;7.18;3.83;;;;;;;29.13;63.93;98791.16;10371580;28;20045;-73
2023/07/09 15:25:38;;;;;;;17.30;5.95;;;;;;;29.40;64.27;98887.56;10371565;28;20042;-71
2023/07/09 15:30:39;;;;;;;8.43;3.45;;;;;;;29.09;64.47;98877.69;10371821;28;20498;-72
2023/07/09 15:35:39;;;;;;;16.33;7.50;;;;;;;28.27;64.83;98780.41;10371390;28;20617;-72
2023/07/09 15:40:40;;;;;;;11.73;4.97;;;;;;;28.78;64.37;98888.03;10373452;28;20038;-71
2023/07/09 15:45:44;;;;;;;11.52;4.80;;;;;;;28.70;64.52;98881.47;10379689;28;20099;-71
2023/07/09 15:50:45;;;;;;;10.75;4.43;;;;;;;28.64;64.44;98877.28;10379364;28;20088;-71
2023/07/09 15:55:46;;;;;;;22.55;5.60;;;;;;;28.54;64.83;98856.59;10379018;28;20513;-71
2023/07/09 16:00:47;;;;;;;12.98;5.05;;;;;;;28.36;65.03;98844.00;10379004;28;20045;-71
2023/07/09 16:05:47;;;;;;;13.30;4.63;;;;;;;28.47;64.45;98852.72;10382120;28;20448;-71
2023/07/09 16:10:48;;;;;;;15.95;4.30;;;;;;;28.50;64.68;98860.28;10410392;28;20052;-72
2023/07/09 16:15:50;;;;;;;81.03;7.25;;;;;;;28.06;65.51;98799.38;10416435;28;20524;-69
2023/07/09 16:20:50;;;;;;;15.75;5.95;;;;;;;28.47;65.75;98866.38;10389894;28;20128;-70
2023/07/09 16:25:51;;;;;;;21.23;6.75;;;;;;;27.87;66.43;98784.13;10398426;28;20081;-71
2023/07/09 16:30:54;;;;;;;17.05;4.93;;;;;;;28.04;66.96;98829.75;10390262;28;20097;-70
2023/07/09 16:35:55;;;;;;;25.20;5.65;;;;;;;28.19;67.89;98883.88;10387581;28;20042;-70
2023/07/09 16:40:56;;;;;;;7.57;3.60;;;;;;;27.98;67.94;98902.00;10392205;28;20558;-70
2023/07/09 16:45:57;;;;;;;8.48;4.05;;;;;;;27.88;68.24;98933.13;10387397;28;20108;-70
2023/07/09 16:50:58;;;;;;;10.32;3.38;;;;;;;27.87;68.90;98963.44;10392413;28;20042;-70
2023/07/09 16:55:58;;;;;;;5.20;2.95;;;;;;;27.34;69.02;98912.50;10378908;28;20049;-70
2023/07/09 17:01:00;;;;;;;4.72;2.95;;;;;;;27.49;71.11;98969.34;10390811;28;20060;-71
2023/07/09 17:06:01;;;;;;;7.45;3.33;;;;;;;26.80;72.69;98907.03;10404019;28;20060;-68
2023/07/09 17:11:03;;;;;;;11.15;4.80;;;;;;;26.85;76.68;98973.09;10389668;28;20511;-69
2023/07/09 17:16:04;;;;;;;7.85;3.35;;;;;;;26.46;76.72;98990.03;10388316;28;20049;-70
2023/07/09 17:21:05;;;;;;;8.73;4.18;;;;;;;26.06;78.04;98999.88;10376825;28;20034;-69
2023/07/09 17:26:07;;;;;;;6.82;3.92;;;;;;;25.82;78.36;99000.09;10413492;28;20037;-70
2023/07/09 17:31:07;;;;;;;6.22;3.47;;;;;;;25.06;78.13;98905.94;10415959;28;20065;-70
2023/07/09 17:36:13;;;;;;;8.80;3.30;;;;;;;25.52;79.56;99010.41;10416247;28;20042;-71
2023/07/09 17:41:14;;;;;;;8.52;3.50;;;;;;;24.64;79.51;98906.13;10416550;28;20038;-70
2023/07/09 17:46:15;;;;;;;11.50;2.95;;;;;;;24.93;80.90;98990.16;10392628;28;20042;-70
2023/07/09 17:51:16;;;;;;;13.48;4.20;;;;;;;24.97;81.54;99002.81;10388106;28;20516;-70
2023/07/09 17:56:23;;;;;;;9.20;3.22;;;;;;;24.86;83.48;98976.13;10415459;28;20053;-70
2023/07/09 18:01:24;;;;;;;15.63;4.95;;;;;;;25.03;82.33;98989.97;10414694;28;20550;-70
2023/07/09 18:06:25;;;;;;;6.38;3.22;;;;;;;25.00;81.85;98980.50;10414672;28;20037;-70
2023/07/09 18:11:28;;;;;;;7.35;3.08;;;;;;;24.88;82.87;98974.72;10409145;28;20480;-70
2023/07/09 18:16:29;;;;;;;7.45;3.28;;;;;;;25.00;82.51;98977.78;10381070;28;20082;-69
2023/07/09 18:21:30;;;;;;;10.60;3.25;;;;;;;24.69;82.51;98925.88;10373590;28;20140;-69
2023/07/09 18:26:32;;;;;;;8.93;3.38;;;;;;;24.79;83.16;98952.84;10378296;28;20041;-70
2023/07/09 18:31:33;;;;;;;5.97;3.00;;;;;;;23.65;82.29;98783.00;10394500;28;20119;-69
2023/07/09 18:36:34;;;;;;;7.28;3.47;;;;;;;24.56;82.56;98938.28;10413381;28;20465;-69
2023/07/09 18:41:35;;;;;;;9.27;3.78;;;;;;;24.70;81.93;98967.41;10405858;28;20045;-70
2023/07/09 18:46:36;;;;;;;5.30;2.70;;;;;;;24.59;81.82;98961.34;10388120;28;20037;-70
2023/07/09 18:51:39;;;;;;;6.43;3.10;;;;;;;24.68;82.25;98985.88;10413081;28;20044;-70
2023/07/09 18:56:40;;;;;;;5.67;2.53;;;;;;;24.61;81.40;99002.56;10382494;28;20050;-71
2023/07/09 19:01:42;;;;;;;6.20;3.28;;;;;;;24.62;81.72;99016.94;10377352;28;20516;-69
2023/07/09 19:06:44;;;;;;;4.88;2.65;;;;;;;24.65;81.28;99032.63;10413624;28;20046;-70
2023/07/09 19:11:48;;;;;;;5.72;1.80;;;;;;;24.52;80.42;99024.13;10394632;28;20045;-70
2023/07/09 19:16:56;;;;;;;6.30;2.30;;;;;;;24.36;81.59;99015.34;10385474;28;20038;-71
2023/07/09 19:21:57;;;;;;;5.55;1.90;;;;;;;24.21;80.63;98996.56;10386079;28;20450;-71
2023/07/09 19:26:59;;;;;;;4.70;1.90;;;;;;;24.17;81.50;99028.09;10418958;28;20140;-71
2023/07/09 19:32:07;;;;;;;4.72;2.15;;;;;;;23.87;82.84;99023.78;10420192;28;20061;-71
2023/07/09 19:37:22;;;;;;;4.32;2.20;;;;;;;23.68;84.83;99010.94;10420260;28;20045;-71
2023/07/09 19:42:24;;;;;;;4.82;2.58;;;;;;;23.01;84.79;98907.00;10388917;28;20044;-70
2023/07/09 19:47:31;;;;;;;5.17;3.07;;;;;;;23.61;87.16;98996.94;10374870;28;20042;-70
2023/07/09 19:52:32;;;;;;;5.22;2.67;;;;;;;23.87;86.53;99034.63;10383818;28;20461;-70
2023/07/09 19:57:33;;;;;;;6.15;3.00;;;;;;;23.85;86.51;99009.72;10414897;28;20053;-70
2023/07/09 20:02:34;;;;;;;5.55;3.40;;;;;;;23.28;87.41;98916.50;10409001;28;20065;-71
2023/07/09 20:07:35;;;;;;;5.82;2.70;;;;;;;24.01;87.91;99041.00;10378762;28;20084;-70
2023/07/09 20:12:36;;;;;;;4.32;2.65;;;;;;;23.67;88.56;98986.84;10378817;28;20124;-71
2023/07/09 20:17:37;;;;;;;6.95;3.70;;;;;;;23.68;89.07;98978.41;10378437;28;20038;-71
2023/07/09 20:22:38;;;;;;;9.95;3.85;;;;;;;24.12;90.42;99068.84;10377592;28;20478;-70
2023/07/09 20:27:39;;;;;;;8.35;4.32;;;;;;;24.10;91.22;99082.66;10376138;28;20046;-70
2023/07/09 20:32:41;;;;;;;6.68;3.83;;;;;;;24.04;92.58;99094.69;10377429;28;20061;-73
2023/07/09 20:37:42;;;;;;;6.70;3.50;;;;;;;23.97;92.69;99093.41;10375952;28;20069;-71
2023/07/09 20:42:44;;;;;;;8.55;3.67;;;;;;;23.75;93.02;99055.91;10376874;28;20052;-71
2023/07/09 20:47:46;;;;;;;7.15;3.95;;;;;;;23.74;94.43;99046.97;10377241;28;20077;-71
2023/07/09 20:52:47;;;;;;;12.52;4.05;;;;;;;23.55;97.00;99065.84;10377509;28;20099;-69
2023/07/09 20:57:48;;;;;;;12.77;3.85;;;;;;;23.30;99.39;99045.16;10376638;28;20096;-68
2023/07/09 21:02:50;;;;;;;8.48;3.42;;;;;;;23.07;100.00;99029.66;10376534;28;20038;-68
2023/07/09 21:07:50;;;;;;;7.07;3.50;;;;;;;23.01;100.00;99042.44;10375948;28;20041;-68
2023/07/09 21:12:51;;;;;;;9.23;3.42;;;;;;;22.79;100.00;99040.91;10376443;28;20505;-68
2023/07/09 21:17:53;;;;;;;7.53;3.30;;;;;;;22.77;100.00;99062.03;10376259;28;20510;-69
2023/07/09 21:22:53;;;;;;;8.13;3.13;;;;;;;22.49;100.00;99043.75;10375941;28;20075;-68
2023/07/09 21:27:54;;;;;;;15.20;3.60;;;;;;;22.26;100.00;99061.47;10375658;28;20635;-68
2023/07/09 21:32:55;;;;;;;18.85;4.70;;;;;;;22.23;100.00;99059.31;10374526;28;20058;-68
2023/07/09 21:37:57;;;;;;;18.30;6.07;;;;;;;21.53;100.00;98918.63;10376036;28;20042;-73
2023/07/09 21:43:00;;;;;;;16.33;4.75;;;;;;;21.53;100.00;98967.28;10374729;28;20046;-68
2023/07/09 21:48:04;;;;;;;15.55;4.57;;;;;;;21.53;100.00;99010.50;10374789;28;20142;-68
2023/07/09 21:53:17;;;;;;;14.68;4.43;;;;;;;21.65;100.00;99005.63;10374294;28;20091;-68
2023/07/09 21:58:17;;;;;;;14.45;4.20;;;;;;;21.38;100.00;98963.50;10374198;28;20040;-70
2023/07/09 22:03:19;;;;;;;10.13;4.68;;;;;;;21.80;100.00;99021.78;10374396;28;20073;-70
2023/07/09 22:08:21;;;;;;;10.65;4.15;;;;;;;21.91;100.00;99019.09;10398415;28;20042;-71
2023/07/09 22:13:22;;;;;;;14.43;4.10;;;;;;;21.75;100.00;98994.81;10414915;28;20103;-70
2023/07/09 22:33:57;;;;;;;8.55;4.03;;;;;;;22.17;100.00;99041.50;10482338;28;20896;-67
2023/07/09 22:38:57;;;;;;;5.47;3.70;;;;;;;22.06;100.00;98994.69;10482404;28;20477;-67
2023/07/09 22:43:58;;;;;;;7.15;3.80;;;;;;;22.21;100.00;99056.88;10481351;28;20072;-70
2023/07/09 22:48:59;;;;;;;8.00;3.65;;;;;;;22.17;100.00;99058.53;10440194;28;20049;-67
2023/07/09 22:54:00;;;;;;;7.15;3.72;;;;;;;22.17;100.00;98993.59;10441032;28;20041;-68
2023/07/09 22:59:00;;;;;;;9.23;3.95;;;;;;;22.09;100.00;99023.88;10440794;28;20049;-70
2023/07/09 23:04:01;;;;;;;8.00;4.80;;;;;;;22.00;100.00;99053.38;10440903;28;20048;-69
2023/07/09 23:09:02;;;;;;;6.28;4.40;;;;;;;21.86;100.00;99015.28;10439991;28;20045;-69
2023/07/09 23:14:03;;;;;;;10.75;4.50;;;;;;;22.06;100.00;98998.19;10440411;28;20138;-66
2023/07/09 23:19:36;;;;;;;10.55;5.30;;;;;;;22.14;100.00;98977.06;10439661;28;20072;-69
2023/07/09 23:24:37;;;;;;;7.32;5.10;;;;;;;22.12;100.00;98977.38;10386527;28;20079;-68
2023/07/09 23:29:37;;;;;;;7.60;4.90;;;;;;;22.15;100.00;98990.31;10398216;28;20058;-69
2023/07/09 23:34:38;;;;;;;9.32;5.30;;;;;;;22.20;100.00;99013.88;10372362;28;20046;-69
2023/07/09 23:39:39;;;;;;;8.45;5.28;;;;;;;22.20;100.00;99012.00;10370559;28;20041;-70
2023/07/09 23:44:43;;;;;;;9.35;6.50;;;;;;;21.93;100.00;98963.66;10371410;28;20094;-69
2023/07/09 23:49:44;;;;;;;7.55;5.85;;;;;;;22.31;100.00;99032.47;10371133;28;20129;-68